Terminal Aerodrome Forecast
Issued by NWS

Home | Current Version | Previous Version | Text Only | Print | Product List | Glossary On
Versions: 1 2 3 4 5 6 7 8 9 10 11 12 13 14 15 16 17 18 19 20 21
893
FTAK31 PAJN 250554 AAA
TAFAKT
TAF AMD
PAKT 250554Z 2506/2606 16007KT P6SM -SHRA SCT015 BKN035 OVC050
      TEMPO 2506/2510 BKN015 OVC025
     FM251300 16004KT 4SM BR VCFG SCT004 OVC015
     FM251800 15004KT 4SM -RA BR BKN007 OVC015
     FM252100 12005KT 5SM -RA BR SCT007 OVC015
     FM260200 27005KT 4SM -RA BR BKN007 OVC015
      AMD LTD TO CLD VIS AND WIND TIL 251500=

USA.gov is the U.S. government's official web portal to all federal, state and local government web resources and services.